Time;durP1;ratioP1;P1;durP2;ratioP2;P2;SDS_P1;SDS_P2;PMS_P1;PMS_P2;Temp;Humidity;BMP_temperature;BMP_pressure;BME280_temperature;BME280_humidity;BME280_pressure;Samples;Min_cycle;Max_cycle;Signal;HPM_P1;HPM_P2
2022/11/04 00:01:45;;;;;;;4.38;0.60;;;10.20;99.90;;;;;;5107117;28;20083;-66
2022/11/04 00:04:12;;;;;;;1.42;0.60;;;10.20;99.90;;;;;;5094999;28;20036;-66
2022/11/04 00:06:39;;;;;;;0.65;0.50;;;10.10;99.90;;;;;;5110552;28;20058;-66
2022/11/04 00:09:07;;;;;;;1.10;0.52;;;10.10;99.90;;;;;;5092495;28;20047;-66
2022/11/04 00:14:17;;;;;;;0.68;0.28;;;10.10;99.90;;;;;;5106858;28;20039;-66
2022/11/04 00:28:41;;;;;;;2.53;0.30;;;10.10;99.90;;;;;;5112038;28;20240;-66
2022/11/04 00:30:26;;;;;;;0.80;0.40;;;10.00;99.90;;;;;;5112165;28;20047;-66
2022/11/04 00:35:36;;;;;;;1.02;0.35;;;10.00;99.90;;;;;;5112389;27;20054;-66
2022/11/04 00:38:01;;;;;;;1.25;0.40;;;9.90;99.90;;;;;;5112172;27;20748;-66
2022/11/04 00:40:27;;;;;;;2.22;0.30;;;9.90;99.90;;;;;;5111868;27;20087;-66
2022/11/04 00:42:53;;;;;;;1.17;0.40;;;9.90;99.90;;;;;;5109981;28;20031;-66
2022/11/04 00:45:18;;;;;;;2.00;0.40;;;9.90;99.90;;;;;;5111782;27;20393;-66
2022/11/04 00:47:44;;;;;;;3.00;0.40;;;10.00;99.90;;;;;;5109838;27;20118;-66
2022/11/04 00:50:09;;;;;;;1.00;0.30;;;10.00;99.90;;;;;;5112216;27;20081;-66
2022/11/04 00:52:35;;;;;;;3.30;0.50;;;10.00;99.90;;;;;;5111900;28;20443;-66
2022/11/04 00:55:01;;;;;;;1.90;0.70;;;10.00;99.90;;;;;;5109701;28;20032;-66
2022/11/04 00:57:26;;;;;;;4.20;0.68;;;10.10;99.90;;;;;;5091263;28;20510;-66
2022/11/04 00:59:52;;;;;;;3.25;0.90;;;10.10;99.90;;;;;;5111365;28;20158;-66
2022/11/04 01:02:18;;;;;;;2.33;0.70;;;10.20;99.90;;;;;;5108597;28;20486;-65
2022/11/04 01:04:43;;;;;;;1.88;0.75;;;10.20;99.90;;;;;;5108165;28;20039;-66
2022/11/04 01:07:09;;;;;;;3.17;0.90;;;10.30;99.90;;;;;;5111904;28;20040;-66
2022/11/04 01:09:34;;;;;;;3.15;0.98;;;10.30;99.90;;;;;;5111673;28;20180;-66
2022/11/04 01:12:00;;;;;;;3.08;0.70;;;10.30;99.90;;;;;;5110114;28;20139;-66
2022/11/04 01:14:26;;;;;;;2.63;1.00;;;10.30;99.90;;;;;;5109313;27;20134;-66
2022/11/04 01:16:51;;;;;;;1.40;0.60;;;10.30;99.90;;;;;;5109996;28;20131;-66
2022/11/04 01:19:17;;;;;;;1.80;0.90;;;10.30;99.90;;;;;;5106977;28;20056;-66
2022/11/04 01:21:43;;;;;;;3.95;0.70;;;10.30;99.90;;;;;;5109183;28;20127;-66
2022/11/04 01:24:09;;;;;;;3.75;0.70;;;10.30;99.90;;;;;;5111882;28;20044;-66
2022/11/04 01:26:35;;;;;;;4.20;1.23;;;10.30;99.90;;;;;;5105629;28;20045;-66
2022/11/04 01:29:01;;;;;;;3.20;1.20;;;10.30;99.90;;;;;;5111531;28;20039;-66
2022/11/04 01:31:29;;;;;;;0.60;0.50;;;10.30;99.90;;;;;;5107165;28;20032;-66
2022/11/04 01:33:55;;;;;;;1.88;0.47;;;10.30;99.90;;;;;;5110745;27;20122;-66
2022/11/04 01:36:21;;;;;;;5.45;1.35;;;10.30;99.90;;;;;;5107261;28;20062;-66
2022/11/04 01:38:47;;;;;;;2.03;0.57;;;10.30;99.90;;;;;;5107446;28;20075;-66
2022/11/04 01:41:20;;;;;;;3.08;0.60;;;10.30;99.90;;;;;;5104384;28;20063;-66
2022/11/04 01:44:03;;;;;;;4.32;0.80;;;10.30;99.90;;;;;;5105605;28;20047;-66
2022/11/04 01:46:32;;;;;;;1.73;0.68;;;10.30;99.90;;;;;;5106044;28;20104;-66
2022/11/04 01:49:23;;;;;;;3.08;0.90;;;10.30;99.90;;;;;;5107751;28;20044;-66
2022/11/04 01:51:53;;;;;;;2.30;0.80;;;10.30;99.90;;;;;;5106387;28;20075;-66
2022/11/04 01:54:19;;;;;;;4.85;1.23;;;10.30;99.90;;;;;;5110927;28;20031;-66
2022/11/04 01:56:46;;;;;;;8.73;1.92;;;10.30;99.90;;;;;;5104072;28;20027;-66
2022/11/04 01:59:20;;;;;;;4.45;1.20;;;10.30;99.90;;;;;;5107700;28;20039;-65
2022/11/04 02:01:46;;;;;;;5.78;1.70;;;10.30;99.90;;;;;;5106229;28;20110;-66
2022/11/04 02:04:25;;;;;;;4.53;1.73;;;10.30;99.90;;;;;;5089665;28;20119;-66
2022/11/04 02:06:59;;;;;;;4.45;1.75;;;10.30;99.90;;;;;;5106919;28;20040;-66
2022/11/04 02:09:27;;;;;;;2.13;1.00;;;10.30;99.90;;;;;;5110797;28;20028;-66
2022/11/04 02:14:39;;;;;;;3.97;1.13;;;10.30;99.90;;;;;;5107901;28;20100;-66
2022/11/04 02:17:17;;;;;;;3.35;1.02;;;10.20;99.90;;;;;;5107586;28;20048;-66
2022/11/04 02:20:26;;;;;;;3.50;1.10;;;10.30;99.90;;;;;;5109148;28;20039;-66
2022/11/04 02:23:23;;;;;;;6.50;1.70;;;10.30;99.90;;;;;;5093115;28;20054;-66
2022/11/04 02:26:19;;;;;;;3.65;1.55;;;10.20;99.90;;;;;;5109618;28;20055;-66
2022/11/04 02:29:22;;;;;;;4.05;1.38;;;10.20;99.90;;;;;;5106376;28;20032;-66
2022/11/04 02:31:48;;;;;;;;;;;10.20;99.90;;;;;;5109009;27;20486;-66
2022/11/04 02:34:22;;;;;;;5.82;1.42;;;10.20;99.90;;;;;;5108985;28;19916;-66
2022/11/04 02:36:57;;;;;;;3.63;1.40;;;10.30;99.90;;;;;;5109239;27;20393;-66
2022/11/04 02:39:28;;;;;;;2.78;1.10;;;10.20;99.90;;;;;;5110379;27;20458;-66
2022/11/04 02:42:00;;;;;;;4.18;1.30;;;10.30;99.90;;;;;;5114887;28;20123;-66
2022/11/04 02:45:11;;;;;;;3.07;1.20;;;10.20;99.90;;;;;;5108748;28;20043;-66
2022/11/04 02:47:41;;;;;;;3.15;1.17;;;10.20;99.90;;;;;;5046645;28;20151;-66
2022/11/04 02:50:14;;;;;;;2.38;1.40;;;10.20;99.90;;;;;;5066358;28;20208;-66
2022/11/04 02:52:42;;;;;;;;;;;10.20;99.90;;;;;;5051208;28;20087;-66
2022/11/04 02:55:25;;;;;;;3.15;1.00;;;10.20;99.90;;;;;;5047664;28;20074;-66
2022/11/04 02:57:54;;;;;;;2.88;1.30;;;10.20;99.90;;;;;;5047393;28;20128;-66
2022/11/04 03:00:20;;;;;;;2.42;0.80;;;10.10;99.90;;;;;;5047912;28;20048;-66
2022/11/04 03:03:05;;;;;;;2.63;0.80;;;10.10;99.90;;;;;;5047639;28;20534;-66
2022/11/04 03:05:37;;;;;;;2.70;0.80;;;10.00;99.90;;;;;;5050696;28;20513;-66
2022/11/04 03:08:14;;;;;;;2.08;0.80;;;10.00;99.90;;;;;;5066168;28;20060;-65
2022/11/04 03:10:49;;;;;;;1.90;0.52;;;9.90;99.90;;;;;;5049738;28;20495;-66
2022/11/04 03:13:22;;;;;;;3.50;0.60;;;9.90;99.90;;;;;;5050474;28;20052;-66
2022/11/04 03:15:53;;;;;;;1.33;0.50;;;9.80;99.90;;;;;;5066905;28;20418;-66
2022/11/04 03:18:30;;;;;;;1.35;0.50;;;9.80;99.90;;;;;;5050518;28;20041;-66
2022/11/04 03:20:59;;;;;;;3.63;0.70;;;9.70;99.90;;;;;;5056859;28;20063;-66
2022/11/04 03:23:25;;;;;;;2.20;0.68;;;9.70;99.90;;;;;;5090083;28;20047;-66
2022/11/04 03:25:56;;;;;;;2.35;0.60;;;9.60;99.90;;;;;;5088776;28;20073;-66
2022/11/04 03:28:31;;;;;;;0.60;0.50;;;9.60;99.90;;;;;;5092501;28;20474;-66
2022/11/04 03:31:01;;;;;;;0.52;0.50;;;9.50;99.90;;;;;;5095323;28;20047;-66
2022/11/04 03:33:41;;;;;;;1.02;0.50;;;9.60;99.90;;;;;;5093750;28;20086;-66
2022/11/04 03:36:08;;;;;;;2.85;0.60;;;9.50;99.90;;;;;;5092779;28;20031;-66
2022/11/04 03:38:35;;;;;;;1.15;0.40;;;9.50;99.90;;;;;;5077241;28;20048;-66
2022/11/04 03:41:06;;;;;;;0.73;0.40;;;9.50;99.90;;;;;;5094527;28;20067;-66
2022/11/04 03:43:33;;;;;;;0.90;0.35;;;9.50;99.90;;;;;;5093362;28;20466;-66
2022/11/04 03:45:59;;;;;;;3.42;0.52;;;9.50;99.90;;;;;;5092680;28;20093;-66
2022/11/04 03:48:25;;;;;;;2.28;0.50;;;9.50;99.90;;;;;;5092150;28;20048;-65
2022/11/04 03:50:50;;;;;;;1.38;0.50;;;9.50;99.90;;;;;;5093100;28;20044;-66
2022/11/04 03:53:21;;;;;;;4.28;0.65;;;9.50;99.90;;;;;;5092958;28;20036;-66
2022/11/04 03:56:14;;;;;;;1.50;0.60;;;9.50;99.90;;;;;;5088782;28;20079;-66
2022/11/04 03:58:49;;;;;;;2.40;0.50;;;9.50;99.90;;;;;;5092124;28;20035;-66
2022/11/04 04:01:22;;;;;;;1.50;0.55;;;9.50;99.90;;;;;;5092417;28;20036;-66
2022/11/04 04:04:03;;;;;;;1.58;0.60;;;9.60;99.90;;;;;;5085612;28;20048;-66
2022/11/04 04:06:33;;;;;;;2.22;0.65;;;9.60;99.90;;;;;;5090407;28;20052;-66
2022/11/04 04:09:25;;;;;;;5.60;1.10;;;9.60;99.90;;;;;;5095164;28;20048;-66
2022/11/04 04:11:58;;;;;;;2.42;0.77;;;9.60;99.90;;;;;;5092031;28;20032;-66
2022/11/04 04:14:40;;;;;;;1.52;0.70;;;9.60;99.90;;;;;;5092790;28;20079;-66
2022/11/04 04:17:38;;;;;;;1.85;0.60;;;9.60;99.90;;;;;;5102173;27;20047;-66
2022/11/04 04:20:09;;;;;;;3.40;0.60;;;9.60;99.90;;;;;;5111519;27;20122;-66
2022/11/04 04:22:40;;;;;;;2.08;0.70;;;9.50;99.90;;;;;;5094876;28;20043;-66
2022/11/04 04:27:56;;;;;;;1.05;0.40;;;9.50;99.90;;;;;;5111138;28;20075;-65
2022/11/04 04:30:22;;;;;;;2.95;0.45;;;9.40;99.90;;;;;;5109625;27;20067;-66
2022/11/04 04:32:51;;;;;;;1.00;0.38;;;9.40;99.90;;;;;;5111326;27;20075;-65
2022/11/04 04:35:42;;;;;;;0.77;0.30;;;9.30;99.90;;;;;;5095974;28;20039;-66
2022/11/04 04:46:57;;;;;;;0.90;0.30;;;8.90;99.90;;;;;;5110718;28;20042;-66
2022/11/04 04:49:22;;;;;;;1.70;0.20;;;8.80;99.90;;;;;;5112107;28;20109;-65
2022/11/04 04:51:48;;;;;;;1.05;0.30;;;8.60;99.90;;;;;;5108727;28;20044;-66
2022/11/04 04:54:14;;;;;;;3.45;0.40;;;8.60;99.90;;;;;;5112494;28;20032;-66
2022/11/04 04:56:39;;;;;;;3.95;0.50;;;8.50;99.90;;;;;;5105569;27;20035;-65
2022/11/04 04:59:05;;;;;;;1.52;0.50;;;8.50;99.90;;;;;;5107340;28;20031;-66
2022/11/04 05:01:32;;;;;;;1.88;0.47;;;8.50;99.90;;;;;;5108811;28;20032;-66
2022/11/04 05:03:57;;;;;;;1.27;0.50;;;8.50;99.90;;;;;;5110768;28;20051;-66
2022/11/04 05:06:23;;;;;;;2.60;0.50;;;8.60;99.90;;;;;;5109723;28;20036;-66
2022/11/04 05:08:48;;;;;;;1.80;0.65;;;8.60;99.90;;;;;;5110694;28;20048;-66
2022/11/04 05:11:14;;;;;;;0.75;0.38;;;8.60;99.90;;;;;;5111775;27;20050;-65
2022/11/04 05:13:40;;;;;;;1.08;0.30;;;8.60;99.90;;;;;;5112687;27;20397;-66
2022/11/04 05:16:10;;;;;;;2.42;0.50;;;8.60;99.90;;;;;;5110750;28;20043;-66
2022/11/04 05:18:36;;;;;;;2.38;0.65;;;8.60;99.90;;;;;;5108952;28;20036;-66
2022/11/04 05:21:07;;;;;;;2.45;0.43;;;8.60;99.90;;;;;;5110103;28;20050;-66
2022/11/04 05:23:34;;;;;;;2.63;0.70;;;8.60;99.90;;;;;;5110614;28;20047;-66
2022/11/04 05:25:59;;;;;;;3.95;0.50;;;8.60;99.90;;;;;;5090754;28;20043;-66
2022/11/04 05:28:25;;;;;;;0.95;0.50;;;8.50;99.90;;;;;;5108620;28;20047;-65
2022/11/04 05:30:51;;;;;;;3.17;0.50;;;8.50;99.90;;;;;;5109497;28;20485;-65
2022/11/04 05:33:17;;;;;;;0.95;0.50;;;8.50;99.90;;;;;;5108604;28;20036;-65
2022/11/04 05:35:42;;;;;;;3.28;0.65;;;8.60;99.90;;;;;;5106667;28;20031;-65
2022/11/04 05:38:08;;;;;;;3.08;0.82;;;8.60;99.90;;;;;;5106889;28;20051;-66
2022/11/04 05:40:34;;;;;;;2.38;0.40;;;8.60;99.90;;;;;;5106362;28;20047;-65
2022/11/04 05:43:00;;;;;;;1.10;0.50;;;8.60;99.90;;;;;;5100245;28;20038;-65
2022/11/04 05:45:27;;;;;;;0.98;0.50;;;8.60;99.90;;;;;;5087645;28;20090;-65
2022/11/04 05:48:00;;;;;;;0.93;0.60;;;8.60;99.90;;;;;;5093574;28;20110;-65
2022/11/04 05:50:27;;;;;;;2.08;0.60;;;8.60;99.90;;;;;;5107723;28;20081;-65
2022/11/04 05:52:56;;;;;;;2.78;0.60;;;8.60;99.90;;;;;;5111542;28;20485;-65
2022/11/04 05:55:21;;;;;;;2.10;0.47;;;8.60;99.90;;;;;;5106535;28;20067;-66
2022/11/04 05:57:47;;;;;;;2.65;1.10;;;8.60;99.90;;;;;;5107584;28;20059;-65
2022/11/04 06:00:13;;;;;;;1.95;0.80;;;8.60;99.90;;;;;;5105050;28;20126;-66
2022/11/04 06:02:38;;;;;;;2.30;1.15;;;8.60;99.90;;;;;;5111016;28;20042;-65
2022/11/04 06:05:05;;;;;;;2.25;0.82;;;8.60;99.90;;;;;;5107599;28;20035;-65
2022/11/04 06:07:30;;;;;;;2.63;0.88;;;8.70;99.90;;;;;;5108311;28;20058;-65
2022/11/04 06:09:56;;;;;;;1.08;1.00;;;8.70;99.90;;;;;;5105617;28;20047;-65
2022/11/04 06:12:21;;;;;;;2.58;1.20;;;8.70;99.90;;;;;;5109464;28;20040;-66
2022/11/04 06:14:47;;;;;;;3.90;0.90;;;8.70;99.90;;;;;;5107011;28;20035;-65
2022/11/04 06:17:17;;;;;;;2.97;1.17;;;8.70;99.90;;;;;;5108531;28;20075;-65
2022/11/04 06:19:43;;;;;;;6.28;0.80;;;8.70;99.90;;;;;;5108566;27;20047;-65
2022/11/04 06:22:14;;;;;;;2.45;0.50;;;8.70;99.90;;;;;;5111914;28;20063;-65
2022/11/04 06:24:40;;;;;;;1.35;0.50;;;8.70;99.90;;;;;;5093756;28;20039;-65
2022/11/04 06:27:06;;;;;;;1.65;0.50;;;8.60;99.90;;;;;;5109845;28;20043;-65
2022/11/04 06:29:32;;;;;;;2.28;0.50;;;8.60;99.90;;;;;;5107163;28;20415;-65
2022/11/04 06:31:57;;;;;;;2.25;0.30;;;8.60;99.90;;;;;;5086391;28;20054;-65
2022/11/04 06:34:23;;;;;;;1.25;0.50;;;8.60;99.90;;;;;;5109958;28;20501;-66
2022/11/04 06:36:49;;;;;;;1.38;0.38;;;8.50;99.90;;;;;;5104197;28;20726;-65
2022/11/04 06:39:15;;;;;;;1.38;0.30;;;8.60;99.90;;;;;;5102293;28;20106;-66
2022/11/04 06:41:41;;;;;;;3.30;0.57;;;8.60;99.90;;;;;;5107507;28;20035;-65
2022/11/04 06:44:07;;;;;;;2.10;0.40;;;8.60;99.90;;;;;;5105503;28;20039;-65
2022/11/04 06:46:41;;;;;;;3.28;0.70;;;8.60;99.90;;;;;;5105501;28;20039;-65
2022/11/04 06:49:12;;;;;;;2.47;0.82;;;8.60;99.90;;;;;;5102134;28;20043;-65
2022/11/04 06:51:38;;;;;;;1.80;0.80;;;8.60;99.90;;;;;;5083066;28;20390;-65
2022/11/04 06:54:04;;;;;;;1.90;0.90;;;8.60;99.90;;;;;;5099377;28;20096;-65
2022/11/04 06:56:30;;;;;;;0.70;0.60;;;8.60;99.90;;;;;;5107218;28;20130;-66
2022/11/04 06:58:56;;;;;;;1.08;0.63;;;8.60;99.90;;;;;;5109190;28;20042;-65
2022/11/04 07:01:25;;;;;;;1.42;0.90;;;8.60;99.90;;;;;;5107333;28;20032;-65
2022/11/04 07:03:53;;;;;;;4.22;0.80;;;8.60;99.90;;;;;;5108915;27;20083;-66
2022/11/04 07:06:20;;;;;;;1.80;1.00;;;8.60;99.90;;;;;;5104919;28;20131;-65
2022/11/04 07:08:46;;;;;;;1.95;0.70;;;8.60;99.90;;;;;;5109524;28;20077;-66
2022/11/04 07:11:12;;;;;;;3.72;0.80;;;8.70;99.90;;;;;;5106357;28;20086;-66
2022/11/04 07:13:39;;;;;;;1.73;0.80;;;8.60;99.90;;;;;;5109257;28;20067;-66
2022/11/04 07:16:08;;;;;;;3.15;1.40;;;8.60;99.90;;;;;;5107248;28;20045;-66
2022/11/04 07:18:35;;;;;;;1.80;0.95;;;8.60;99.90;;;;;;5108255;28;20063;-66
2022/11/04 07:21:01;;;;;;;3.60;1.02;;;8.60;99.90;;;;;;5107669;28;20068;-66
2022/11/04 07:23:27;;;;;;;2.45;1.38;;;8.60;99.90;;;;;;5105987;28;20573;-65
2022/11/04 07:25:53;;;;;;;5.13;1.60;;;8.60;99.90;;;;;;5112977;28;20134;-65
2022/11/04 07:28:19;;;;;;;4.03;1.85;;;8.70;99.90;;;;;;5104945;28;20490;-65
2022/11/04 07:30:45;;;;;;;6.85;2.20;;;8.70;99.90;;;;;;5107718;28;20040;-65
2022/11/04 07:33:11;;;;;;;5.15;2.53;;;8.70;99.90;;;;;;5090684;28;20509;-65
2022/11/04 07:35:37;;;;;;;7.90;3.33;;;8.70;99.90;;;;;;5104900;28;20046;-66
2022/11/04 07:38:03;;;;;;;5.10;3.45;;;8.80;99.90;;;;;;5109311;28;20035;-66
2022/11/04 07:40:30;;;;;;;6.78;3.78;;;8.80;99.90;;;;;;5109162;28;20043;-65
2022/11/04 07:42:55;;;;;;;6.60;3.70;;;8.80;99.90;;;;;;5109188;28;20061;-65
2022/11/04 07:45:21;;;;;;;7.35;3.80;;;8.80;99.90;;;;;;5110665;28;20035;-66
2022/11/04 07:47:46;;;;;;;17.27;5.03;;;8.90;99.90;;;;;;5109117;28;20044;-66
2022/11/04 07:50:12;;;;;;;7.45;3.92;;;8.90;99.90;;;;;;5108880;28;20049;-65
2022/11/04 07:52:38;;;;;;;8.38;3.45;;;9.00;99.90;;;;;;5110136;28;20049;-66
2022/11/04 07:55:04;;;;;;;10.25;3.30;;;9.10;99.90;;;;;;5108576;28;20143;-66
2022/11/04 07:57:30;;;;;;;5.97;3.28;;;9.10;99.90;;;;;;5109048;28;20043;-66
2022/11/04 07:59:55;;;;;;;4.45;3.00;;;9.10;99.90;;;;;;5106232;28;20080;-65
2022/11/04 08:02:21;;;;;;;5.57;3.03;;;9.20;99.90;;;;;;5108896;28;20397;-65
2022/11/04 08:04:47;;;;;;;7.82;3.38;;;9.20;99.90;;;;;;5089704;28;20563;-65
2022/11/04 08:07:12;;;;;;;3.92;3.15;;;9.20;99.90;;;;;;5108592;28;20045;-66
2022/11/04 08:09:38;;;;;;;4.15;3.08;;;9.30;99.90;;;;;;5108243;28;20123;-66
2022/11/04 08:12:05;;;;;;;4.82;3.22;;;9.30;99.90;;;;;;5089132;28;20085;-65
2022/11/04 08:14:31;;;;;;;5.05;2.95;;;9.40;99.90;;;;;;5111070;28;20044;-65
2022/11/04 08:16:56;;;;;;;5.03;3.58;;;9.50;99.90;;;;;;5112315;28;20074;-66
2022/11/04 08:19:22;;;;;;;5.68;3.85;;;9.50;99.90;;;;;;5112232;28;20067;-66
2022/11/04 08:21:48;;;;;;;6.22;4.25;;;9.50;99.90;;;;;;5091216;28;20059;-65
2022/11/04 08:24:13;;;;;;;6.63;4.20;;;9.40;99.90;;;;;;5087329;28;20096;-66
2022/11/04 08:26:39;;;;;;;7.13;4.20;;;9.40;99.90;;;;;;5107830;28;20075;-65
2022/11/04 08:29:08;;;;;;;9.32;5.43;;;9.30;99.90;;;;;;5112326;28;20123;-66
2022/11/04 08:31:34;;;;;;;9.10;5.20;;;9.30;99.90;;;;;;5112490;28;20035;-66
2022/11/04 08:34:00;;;;;;;7.88;6.10;;;9.30;99.90;;;;;;5112249;28;20035;-66
2022/11/04 08:36:29;;;;;;;11.38;6.97;;;9.30;99.90;;;;;;5109967;28;20044;-66
2022/11/04 08:38:55;;;;;;;10.82;7.30;;;9.40;99.90;;;;;;5111246;28;20376;-65
2022/11/04 08:41:24;;;;;;;14.23;7.97;;;9.50;99.90;;;;;;5111717;28;20040;-65
2022/11/04 08:43:50;;;;;;;14.00;9.43;;;9.50;99.90;;;;;;5111928;28;20035;-66
2022/11/04 08:46:16;;;;;;;15.07;10.25;;;9.60;99.90;;;;;;5113353;28;20549;-68
2022/11/04 08:48:43;;;;;;;15.20;10.35;;;9.70;99.90;;;;;;5109783;28;20127;-65
2022/11/04 08:51:18;;;;;;;12.85;9.80;;;9.80;99.90;;;;;;5109955;28;20047;-66
2022/11/04 08:53:43;;;;;;;15.85;10.65;;;9.80;99.90;;;;;;5112020;28;20115;-66
2022/11/04 08:56:18;;;;;;;18.05;12.27;;;9.90;99.90;;;;;;5111898;28;20114;-65
2022/11/04 08:58:44;;;;;;;16.50;10.90;;;10.00;99.90;;;;;;5111118;28;20053;-65
2022/11/04 09:01:10;;;;;;;18.48;11.73;;;10.20;99.90;;;;;;5111710;28;20044;-66
2022/11/04 09:03:37;;;;;;;16.52;11.65;;;10.20;99.90;;;;;;5112903;28;20038;-66
2022/11/04 09:06:09;;;;;;;17.77;11.90;;;10.30;99.90;;;;;;5111796;28;20034;-66
2022/11/04 09:08:37;;;;;;;19.58;11.50;;;10.40;99.90;;;;;;5094214;28;20039;-66
2022/11/04 09:11:06;;;;;;;15.50;11.60;;;10.50;99.90;;;;;;5093667;28;20043;-65
2022/11/04 09:13:32;;;;;;;17.83;11.70;;;10.60;99.90;;;;;;5111201;28;20047;-65
2022/11/04 09:15:58;;;;;;;15.32;10.80;;;10.60;99.90;;;;;;5111899;28;20554;-65
2022/11/04 09:18:23;;;;;;;16.75;11.50;;;10.60;99.90;;;;;;5110662;28;20043;-66
2022/11/04 09:20:49;;;;;;;16.17;11.88;;;10.50;99.90;;;;;;5094634;28;20040;-66
2022/11/04 09:23:14;;;;;;;16.40;12.07;;;10.70;99.90;;;;;;5092329;28;20086;-66
2022/11/04 09:25:40;;;;;;;23.25;12.10;;;10.90;99.90;;;;;;5110926;28;20035;-66
2022/11/04 09:28:06;;;;;;;21.38;11.95;;;11.00;99.90;;;;;;5111466;28;20379;-66
2022/11/04 09:30:32;;;;;;;17.33;11.82;;;11.10;99.90;;;;;;5110542;28;20047;-65
2022/11/04 09:32:58;;;;;;;17.17;12.35;;;11.10;99.90;;;;;;5110688;28;20035;-66
2022/11/04 09:35:26;;;;;;;16.83;12.18;;;11.10;99.90;;;;;;5108720;28;20047;-66
2022/11/04 09:37:52;;;;;;;17.48;12.20;;;11.10;99.90;;;;;;5111579;28;20544;-66
2022/11/04 09:40:22;;;;;;;18.40;11.88;;;11.00;99.90;;;;;;5108097;28;20048;-66
2022/11/04 09:43:12;;;;;;;18.00;12.70;;;10.90;99.90;;;;;;5110178;27;20045;-66
2022/11/04 09:45:41;;;;;;;16.92;12.90;;;10.90;99.90;;;;;;5093585;28;20058;-65
2022/11/04 09:48:17;;;;;;;18.73;13.45;;;10.90;99.90;;;;;;5092829;28;20047;-65
2022/11/04 09:50:51;;;;;;;18.45;13.52;;;11.00;99.90;;;;;;5092060;28;20131;-67
2022/11/04 09:53:25;;;;;;;18.13;13.38;;;11.10;99.90;;;;;;5110819;28;20043;-66
2022/11/04 09:56:01;;;;;;;17.30;13.40;;;11.30;99.90;;;;;;5110441;28;20027;-66
2022/11/04 09:58:32;;;;;;;19.80;13.40;;;11.40;99.90;;;;;;5093883;28;20036;-66
2022/11/04 10:01:05;;;;;;;16.42;12.43;;;11.80;99.90;;;;;;5110645;28;20028;-66
2022/11/04 10:03:47;;;;;;;16.05;11.88;;;12.30;99.90;;;;;;5093356;28;20050;-67
2022/11/04 10:06:31;;;;;;;17.95;12.43;;;12.90;99.90;;;;;;5109562;28;20390;-66
2022/11/04 10:09:29;;;;;;;14.10;12.27;;;13.20;99.90;;;;;;5108142;28;20047;-66
2022/11/04 10:12:14;;;;;;;16.02;12.00;;;13.60;99.90;;;;;;5028679;28;20072;-67
2022/11/04 10:14:42;;;;;;;13.88;11.45;;;13.70;99.90;;;;;;5031493;28;20052;-66
2022/11/04 10:17:23;;;;;;;14.05;11.48;;;13.70;99.90;;;;;;5014905;28;20037;-66
2022/11/04 10:20:11;;;;;;;15.05;11.32;;;13.60;99.90;;;;;;5031629;28;20041;-66
2022/11/04 10:22:57;;;;;;;17.65;12.10;;;13.60;99.90;;;;;;5027837;28;20049;-66
2022/11/04 10:25:47;;;;;;;17.17;12.90;;;13.60;99.90;;;;;;5031754;28;20051;-66
2022/11/04 10:28:19;;;;;;;13.93;11.77;;;13.60;99.90;;;;;;5031006;28;20102;-66
2022/11/04 10:30:48;;;;;;;15.40;11.70;;;13.60;99.90;;;;;;5031166;28;20048;-66
2022/11/04 10:33:37;;;;;;;16.08;11.57;;;14.10;99.90;;;;;;5029978;28;20095;-67
2022/11/04 10:36:08;;;;;;;14.43;11.38;;;14.30;99.90;;;;;;5031001;28;20055;-67
2022/11/04 10:38:54;;;;;;;17.05;11.27;;;14.80;99.90;;;;;;5031237;28;20045;-66
2022/11/04 10:41:38;;;;;;;17.27;11.57;;;15.20;99.90;;;;;;5010491;28;20505;-66
2022/11/04 10:44:05;;;;;;;14.20;11.68;;;15.30;99.90;;;;;;5023896;28;20044;-66
2022/11/04 10:47:06;;;;;;;16.33;11.10;;;15.20;99.90;;;;;;5027854;28;20132;-67
2022/11/04 10:50:10;;;;;;;15.55;10.30;;;15.40;99.90;;;;;;5072253;28;20093;-67
2022/11/04 10:52:36;;;;;;;12.50;9.57;;;15.40;99.90;;;;;;5088393;28;20402;-66
2022/11/04 10:55:10;;;;;;;15.85;11.85;;;15.30;99.90;;;;;;5088238;28;20036;-66
2022/11/04 10:57:36;;;;;;;15.20;10.75;;;15.00;99.90;;;;;;5088793;28;20423;-67
2022/11/04 11:00:04;;;;;;;16.58;11.07;;;15.20;99.90;;;;;;5087107;28;20040;-66
2022/11/04 11:02:36;;;;;;;12.57;9.18;;;15.20;99.90;;;;;;5089051;28;20122;-67
2022/11/04 11:05:16;;;;;;;14.50;10.65;;;15.20;99.90;;;;;;5088158;28;20040;-66
2022/11/04 11:07:43;;;;;;;10.88;7.78;;;14.60;99.90;;;;;;5088874;28;20043;-66
2022/11/04 11:10:35;;;;;;;11.38;7.53;;;14.20;99.90;;;;;;5087827;28;20052;-66
2022/11/04 11:13:06;;;;;;;11.10;7.70;;;13.80;99.90;;;;;;5065173;28;20112;-67
2022/11/04 11:15:34;;;;;;;9.02;7.60;;;13.70;99.90;;;;;;5085597;28;20284;-67
2022/11/04 11:18:06;;;;;;;12.23;8.10;;;13.80;99.90;;;;;;5096034;28;20541;-68
2022/11/04 11:20:36;;;;;;;11.83;8.10;;;14.00;99.90;;;;;;5112505;28;20391;-68
2022/11/04 11:23:08;;;;;;;10.27;7.40;;;14.00;99.90;;;;;;5111494;27;20050;-67
2022/11/04 11:25:35;;;;;;;11.40;5.20;;;14.30;99.90;;;;;;5111288;27;20615;-66
2022/11/04 11:28:08;;;;;;;8.10;4.90;;;14.10;99.90;;;;;;5113622;28;20541;-66
2022/11/04 11:30:43;;;;;;;8.48;6.20;;;13.90;99.90;;;;;;5112348;28;20054;-66
2022/11/04 11:33:20;;;;;;;7.68;5.45;;;13.90;99.90;;;;;;5094293;28;20042;-65
2022/11/04 11:35:54;;;;;;;6.28;4.75;;;13.70;99.90;;;;;;5112399;28;20114;-66
2022/11/04 11:38:28;;;;;;;6.30;3.50;;;13.70;99.90;;;;;;5111653;28;20031;-65
2022/11/04 11:41:09;;;;;;;6.47;3.97;;;13.70;99.90;;;;;;5111582;27;20039;-65
2022/11/04 11:43:42;;;;;;;8.40;4.97;;;13.50;99.90;;;;;;5110125;28;20054;-66
2022/11/04 11:46:10;;;;;;;7.35;5.00;;;13.60;99.90;;;;;;5112830;27;20066;-66
2022/11/04 11:48:49;;;;;;;10.27;4.78;;;13.50;99.90;;;;;;5097074;27;20080;-67
2022/11/04 11:51:31;;;;;;;8.80;4.43;;;13.60;99.90;;;;;;5112493;27;20043;-67
2022/11/04 11:54:06;;;;;;;8.02;4.10;;;13.90;99.90;;;;;;5096138;27;20054;-67
2022/11/04 11:56:42;;;;;;;6.88;4.43;;;14.00;99.90;;;;;;5112382;27;20059;-67
2022/11/04 11:59:48;;;;;;;4.80;4.22;;;14.00;99.90;;;;;;5110941;27;20039;-66
2022/11/04 12:02:41;;;;;;;7.05;4.00;;;13.90;99.90;;;;;;5115457;27;20374;-67
2022/11/04 12:05:12;;;;;;;6.57;3.13;;;13.70;99.90;;;;;;5128409;27;20390;-67
2022/11/04 12:07:53;;;;;;;6.38;3.92;;;13.30;99.90;;;;;;5113850;27;20047;-67
2022/11/04 12:10:28;;;;;;;6.45;3.25;;;13.10;99.90;;;;;;5094483;27;20047;-66
2022/11/04 12:13:24;;;;;;;4.65;3.13;;;13.00;99.90;;;;;;5114975;27;20031;-66
2022/11/04 12:16:09;;;;;;;5.85;3.28;;;12.80;99.90;;;;;;5115975;27;20047;-65
2022/11/04 12:18:53;;;;;;;5.15;2.30;;;12.70;99.90;;;;;;5105871;27;20042;-65
2022/11/04 12:21:56;;;;;;;5.15;2.10;;;12.60;99.90;;;;;;5089554;27;20043;-65
2022/11/04 12:24:26;;;;;;;5.78;2.33;;;12.60;99.90;;;;;;5061166;28;20513;-65
2022/11/04 12:27:11;;;;;;;5.20;2.17;;;12.60;99.90;;;;;;5031029;28;20041;-65
2022/11/04 12:30:05;;;;;;;5.78;2.95;;;12.70;99.90;;;;;;5047903;28;20465;-65
2022/11/04 12:33:10;;;;;;;5.78;2.50;;;12.80;99.90;;;;;;5045807;28;20059;-65
2022/11/04 12:35:45;;;;;;;6.00;1.60;;;12.90;99.90;;;;;;5046361;28;20530;-65
2022/11/04 12:38:41;;;;;;;5.13;1.67;;;13.10;99.90;;;;;;5048817;28;20048;-65
2022/11/04 12:41:15;;;;;;;4.88;1.80;;;13.20;99.90;;;;;;5069097;28;20049;-65
2022/11/04 12:43:50;;;;;;;4.65;1.30;;;13.10;99.90;;;;;;5052049;28;20518;-65
2022/11/04 12:46:34;;;;;;;3.85;1.30;;;12.90;99.90;;;;;;5053525;28;20404;-65
2022/11/04 12:49:43;;;;;;;5.13;1.20;;;12.60;99.90;;;;;;5035677;28;20053;-65
2022/11/04 12:52:30;;;;;;;1.90;0.70;;;12.50;99.90;;;;;;5051642;28;20044;-65
2022/11/04 12:55:26;;;;;;;2.80;0.90;;;12.40;99.90;;;;;;5051074;28;20072;-65
2022/11/04 12:58:01;;;;;;;4.78;1.10;;;12.30;99.90;;;;;;5053987;28;20111;-65
2022/11/04 13:00:30;;;;;;;4.45;0.75;;;12.30;99.90;;;;;;5093021;27;20082;-65
2022/11/04 13:03:04;;;;;;;3.58;0.60;;;12.30;99.90;;;;;;5092246;27;20055;-65
2022/11/04 13:05:45;;;;;;;4.20;0.60;;;12.30;99.90;;;;;;5114935;27;20131;-66
2022/11/04 13:08:37;;;;;;;2.80;0.80;;;12.30;99.90;;;;;;5114661;27;20035;-66
2022/11/04 13:11:28;;;;;;;4.10;0.65;;;12.40;99.90;;;;;;5114946;27;20110;-66
2022/11/04 13:14:07;;;;;;;4.57;0.70;;;12.50;99.90;;;;;;5114543;27;20063;-65
2022/11/04 13:16:38;;;;;;;3.63;1.02;;;12.50;99.90;;;;;;5114864;27;20116;-66
2022/11/04 13:19:15;;;;;;;4.35;0.98;;;12.60;99.90;;;;;;5111679;27;20090;-66
2022/11/04 13:21:42;;;;;;;3.83;0.93;;;12.70;99.90;;;;;;5114334;27;20073;-66
2022/11/04 13:24:29;;;;;;;5.13;0.98;;;12.80;99.90;;;;;;5113813;27;20497;-66
2022/11/04 13:26:59;;;;;;;5.57;1.10;;;13.30;99.90;;;;;;5111203;27;20440;-66
2022/11/04 13:29:26;;;;;;;3.95;0.80;;;13.30;99.90;;;;;;5112875;27;20061;-66
2022/11/04 13:32:03;;;;;;;4.00;1.02;;;13.30;99.90;;;;;;5105934;27;20363;-66
2022/11/04 13:35:07;;;;;;;2.88;0.65;;;13.10;99.90;;;;;;5120457;27;20096;-66
2022/11/04 13:37:39;;;;;;;2.63;0.70;;;13.00;99.90;;;;;;5107225;27;20378;-66
2022/11/04 13:40:16;;;;;;;3.38;0.57;;;12.90;99.90;;;;;;5103545;27;20134;-66
2022/11/04 13:45:56;;;;;;;2.70;0.60;;;12.60;99.90;;;;;;5114089;27;20127;-67
2022/11/04 13:48:27;;;;;;;2.58;0.50;;;12.50;99.90;;;;;;5114523;27;20043;-67